createdAt,value
2019-05-29T00:00:46.549Z,100.00
2019-05-29T00:04:12.362Z,100.00
2019-05-29T00:07:19.779Z,100.00
2019-05-29T00:10:27.080Z,100.00
2019-05-29T00:13:34.274Z,100.00
2019-05-29T00:16:41.467Z,100.00
2019-05-29T00:19:48.740Z,100.00
2019-05-29T00:22:54.888Z,100.00
2019-05-29T00:26:14.684Z,100.00
2019-05-29T00:29:21.946Z,100.00
2019-05-29T00:32:41.571Z,100.00
2019-05-29T00:35:48.929Z,100.00
2019-05-29T00:39:08.682Z,100.00
2019-05-29T00:42:17.453Z,100.00
2019-05-29T00:45:24.962Z,100.00
2019-05-29T00:48:32.304Z,100.00
2019-05-29T00:51:39.747Z,100.00
2019-05-29T00:54:47.127Z,100.00
2019-05-29T00:57:54.777Z,100.00
2019-05-29T01:01:13.786Z,100.00
2019-05-29T01:04:32.927Z,100.00
2019-05-29T01:07:58.225Z,100.00
2019-05-29T01:11:03.988Z,100.00
2019-05-29T01:14:22.519Z,100.00
2019-05-29T01:17:29.786Z,100.00
2019-05-29T01:20:49.416Z,100.00
2019-05-29T01:23:55.577Z,100.00
2019-05-29T01:27:03.032Z,100.00
2019-05-29T01:30:11.180Z,100.00
2019-05-29T01:33:30.838Z,100.00
2019-05-29T01:36:55.494Z,100.00
2019-05-29T01:40:16.577Z,100.00
2019-05-29T01:43:10.643Z,100.00
2019-05-29T01:46:17.816Z,100.00
2019-05-29T01:49:23.801Z,100.00
2019-05-29T01:52:31.305Z,100.00
2019-05-29T01:55:38.668Z,100.00
2019-05-29T01:59:03.573Z,100.00
2019-05-29T02:02:10.024Z,100.00
2019-05-29T02:05:17.852Z,100.00
2019-05-29T02:08:36.642Z,100.00
2019-05-29T02:11:55.818Z,100.00
2019-05-29T02:15:03.091Z,100.00
2019-05-29T02:18:22.971Z,100.00
2019-05-29T02:21:30.525Z,100.00
2019-05-29T02:24:37.897Z,100.00
2019-05-29T02:27:45.336Z,100.00
2019-05-29T02:30:52.660Z,100.00
2019-05-29T02:33:59.949Z,100.00
2019-05-29T02:37:26.110Z,100.00
2019-05-29T02:40:33.467Z,100.00
2019-05-29T02:44:02.743Z,100.00
2019-05-29T02:47:10.005Z,100.00
2019-05-29T02:50:29.396Z,100.00
2019-05-29T02:53:48.576Z,100.00
2019-05-29T02:57:07.774Z,100.00
2019-05-29T03:00:14.257Z,100.00
2019-05-29T03:03:23.778Z,100.00
2019-05-29T03:06:49.016Z,100.00
2019-05-29T03:10:08.645Z,100.00
2019-05-29T03:13:16.072Z,100.00
2019-05-29T03:16:26.052Z,100.00
2019-05-29T03:19:34.536Z,100.00
2019-05-29T03:22:41.714Z,100.00
2019-05-29T03:25:49.118Z,100.00
2019-05-29T03:29:08.267Z,100.00
2019-05-29T03:32:14.791Z,100.00
2019-05-29T03:35:22.261Z,100.00
2019-05-29T03:38:30.307Z,100.00
2019-05-29T03:41:39.021Z,100.00
2019-05-29T03:44:46.486Z,100.00
2019-05-29T03:47:53.975Z,100.00
2019-05-29T03:51:01.323Z,100.00
2019-05-29T03:54:08.770Z,100.00
2019-05-29T03:57:16.109Z,100.00
2019-05-29T04:00:23.559Z,100.00
2019-05-29T04:03:49.229Z,100.00
2019-05-29T04:17:39.069Z,100.00
2019-05-29T04:20:59.229Z,100.00
2019-05-29T04:24:07.019Z,100.00
2019-05-29T04:27:14.300Z,100.00
2019-05-29T04:30:34.970Z,100.00
2019-05-29T04:33:43.640Z,100.00
2019-05-29T04:37:07.340Z,100.00
2019-05-29T04:40:12.142Z,100.00
2019-05-29T04:43:19.394Z,100.00
2019-05-29T04:46:26.878Z,100.00
2019-05-29T04:49:33.868Z,100.00
2019-05-29T04:52:42.156Z,100.00
2019-05-29T04:55:49.756Z,100.00
2019-05-29T04:58:57.292Z,100.00
2019-05-29T05:02:04.729Z,100.00
2019-05-29T05:05:31.075Z,100.00
2019-05-29T05:08:39.715Z,100.00
2019-05-29T05:11:47.527Z,100.00
2019-05-29T05:15:10.767Z,100.00
2019-05-29T05:18:18.934Z,100.00
2019-05-29T05:21:26.354Z,100.00
2019-05-29T05:24:51.498Z,100.00
2019-05-29T05:28:10.234Z,100.00
2019-05-29T05:31:36.499Z,100.00
2019-05-29T05:34:43.941Z,100.00
2019-05-29T05:37:51.348Z,100.00
2019-05-29T05:41:15.190Z,100.00
2019-05-29T05:44:35.332Z,100.00
2019-05-29T05:47:53.664Z,100.00
2019-05-29T05:50:50.065Z,100.00
2019-05-29T05:53:56.231Z,100.00
2019-05-29T05:57:21.297Z,100.00
2019-05-29T06:00:46.091Z,100.00
2019-05-29T06:04:11.791Z,100.00
2019-05-29T06:07:38.127Z,100.00
2019-05-29T06:10:45.579Z,100.00
2019-05-29T06:13:53.076Z,100.00
2019-05-29T06:17:12.577Z,100.00
2019-05-29T06:20:32.536Z,100.00
2019-05-29T06:59:52.360Z,100.00
2019-05-29T07:06:42.716Z,100.00
2019-05-29T07:09:49.838Z,100.00
2019-05-29T07:12:56.060Z,100.00
2019-05-29T07:16:03.530Z,100.00
2019-05-29T07:19:45.061Z,100.00
2019-05-29T07:22:19.950Z,100.00
2019-05-29T07:25:27.245Z,100.00
2019-05-29T07:28:34.511Z,100.00
2019-05-29T07:31:41.311Z,100.00
2019-05-29T07:35:02.051Z,100.00
2019-05-29T07:37:57.444Z,100.00
2019-05-29T07:41:04.860Z,100.00
2019-05-29T07:44:12.294Z,100.00
2019-05-29T07:47:19.574Z,100.00
2019-05-29T07:50:26.936Z,100.00
2019-05-29T07:53:52.502Z,100.00
2019-05-29T07:57:10.955Z,100.00
2019-05-29T08:00:35.710Z,100.00
2019-05-29T08:03:50.778Z,100.00
2019-05-29T08:07:09.892Z,100.00
2019-05-29T08:10:17.520Z,100.00
2019-05-29T08:13:24.883Z,100.00
2019-05-29T08:16:32.646Z,100.00
2019-05-29T08:19:53.509Z,100.00
2019-05-29T08:22:48.511Z,100.00
2019-05-29T08:25:55.955Z,100.00
2019-05-29T08:29:03.431Z,100.00
2019-05-29T08:32:10.769Z,100.00
2019-05-29T08:35:18.142Z,100.00
2019-05-29T08:38:37.236Z,100.00
2019-05-29T08:42:21.189Z,100.00
2019-05-29T08:45:16.864Z,100.00
2019-05-29T08:48:36.004Z,100.00
2019-05-29T08:52:11.253Z,100.00
2019-05-29T08:55:21.584Z,100.00
2019-05-29T08:58:28.874Z,100.00
2019-05-29T09:01:50.439Z,100.00
2019-05-29T09:05:08.653Z,100.00
2019-05-29T09:08:27.686Z,100.00
2019-05-29T09:11:34.121Z,100.00
2019-05-29T09:14:41.475Z,100.00
2019-05-29T09:17:48.771Z,100.00
2019-05-29T09:21:03.324Z,100.00
2019-05-29T09:24:05.143Z,100.00
2019-05-29T09:27:25.464Z,100.00
2019-05-29T09:30:32.921Z,100.00
2019-05-29T09:33:40.283Z,100.00
2019-05-29T09:36:47.617Z,100.00
2019-05-29T09:39:54.929Z,100.00
2019-05-29T09:43:02.281Z,100.00
2019-05-29T09:46:09.692Z,100.00
2019-05-29T09:49:18.255Z,100.00
2019-05-29T09:52:25.581Z,100.00
2019-05-29T09:55:33.008Z,100.00
2019-05-29T09:58:55.286Z,100.00
2019-05-29T10:02:19.703Z,100.00
2019-05-29T10:05:44.887Z,100.00
2019-05-29T10:08:54.151Z,100.00
2019-05-29T10:12:04.966Z,100.00
2019-05-29T10:15:11.617Z,100.00
2019-05-29T10:18:31.968Z,100.00
2019-05-29T10:21:39.020Z,100.00
2019-05-29T10:24:37.003Z,100.00
2019-05-29T10:27:44.361Z,100.00
2019-05-29T10:30:52.723Z,100.00
2019-05-29T10:34:00.243Z,100.00
2019-05-29T10:37:07.606Z,100.00
2019-05-29T10:40:32.908Z,100.00
2019-05-29T10:43:57.744Z,100.00
2019-05-29T10:47:17.407Z,100.00
2019-05-29T10:50:24.749Z,100.00
2019-05-29T10:53:52.132Z,100.00
2019-05-29T10:57:10.368Z,100.00
2019-05-29T11:00:38.572Z,100.00
2019-05-29T11:03:55.971Z,100.00
2019-05-29T11:07:03.326Z,100.00
2019-05-29T11:10:13.300Z,100.00
2019-05-29T11:13:18.605Z,100.00
2019-05-29T11:16:26.248Z,100.00
2019-05-29T11:19:32.379Z,100.00
2019-05-29T11:22:39.846Z,100.00
2019-05-29T11:25:47.854Z,100.00
2019-05-29T11:29:06.832Z,100.00
2019-05-29T11:32:32.555Z,100.00
2019-05-29T11:36:10.041Z,100.00
2019-05-29T11:39:25.143Z,100.00
2019-05-29T11:42:50.782Z,100.00
2019-05-29T11:45:59.595Z,100.00
2019-05-29T11:49:07.144Z,100.00
2019-05-29T11:52:24.448Z,100.00
2019-05-29T11:55:23.168Z,100.00
2019-05-29T11:58:31.818Z,100.00
2019-05-29T12:01:49.734Z,100.00
2019-05-29T12:04:48.408Z,100.00
2019-05-29T12:07:55.444Z,100.00
2019-05-29T12:11:02.937Z,100.00
2019-05-29T12:14:21.963Z,100.00
2019-05-29T12:17:29.442Z,100.00
2019-05-29T12:20:56.138Z,100.00
2019-05-29T12:24:03.683Z,100.00
2019-05-29T12:27:23.871Z,100.00
2019-05-29T12:30:42.870Z,100.00
2019-05-29T12:34:18.875Z,100.00
2019-05-29T12:37:28.996Z,100.00
2019-05-29T12:40:47.874Z,100.00
2019-05-29T12:43:55.346Z,100.00
2019-05-29T12:47:04.276Z,100.00
2019-05-29T12:50:12.558Z,100.00
2019-05-29T12:53:30.229Z,100.00
2019-05-29T12:56:29.110Z,100.00
2019-05-29T12:59:34.890Z,100.00
2019-05-29T13:02:42.257Z,100.00
2019-05-29T13:05:49.620Z,100.00
2019-05-29T13:09:14.417Z,100.00
2019-05-29T13:12:39.699Z,100.00
2019-05-29T13:15:47.064Z,100.00
2019-05-29T13:19:06.760Z,100.00
2019-05-29T13:22:25.902Z,99.59
2019-05-29T13:25:51.733Z,95.17
2019-05-29T13:28:59.728Z,100.00
2019-05-29T13:32:07.672Z,100.00
2019-05-29T13:35:16.470Z,100.00
2019-05-29T13:38:23.861Z,99.88
2019-05-29T13:41:31.159Z,100.00
2019-05-29T13:44:38.546Z,100.00
2019-05-29T13:47:45.963Z,100.00
2019-05-29T13:50:53.221Z,100.00
2019-05-29T13:54:06.522Z,100.00
2019-05-29T13:57:21.207Z,100.00
2019-05-29T14:00:40.442Z,97.78
2019-05-29T14:03:50.388Z,96.41
2019-05-29T14:07:06.974Z,96.62
2019-05-29T14:10:32.185Z,100.00
2019-05-29T14:13:59.032Z,98.09
2019-05-29T14:17:24.054Z,95.79
2019-05-29T14:20:43.356Z,97.17
2019-05-29T14:24:07.317Z,83.34
2019-05-29T14:27:23.791Z,85.63
2019-05-29T14:30:31.195Z,86.96
2019-05-29T14:33:55.340Z,90.78
2019-05-29T14:37:20.539Z,100.00
2019-05-29T14:40:26.739Z,100.00
2019-05-29T14:43:34.049Z,94.57
2019-05-29T14:46:41.307Z,94.57
2019-05-29T14:49:48.690Z,97.70
2019-05-29T14:52:56.062Z,80.96
2019-05-29T14:56:04.482Z,92.98
2019-05-29T14:59:13.462Z,90.39
2019-05-29T15:02:23.985Z,84.12
2019-05-29T15:05:29.575Z,75.46
2019-05-29T15:08:36.861Z,76.58
2019-05-29T15:11:44.178Z,76.58
2019-05-29T15:14:51.577Z,77.77
2019-05-29T15:17:59.022Z,70.09
2019-05-29T15:21:23.752Z,78.63
2019-05-29T15:24:31.109Z,75.22
2019-05-29T15:27:37.343Z,73.74
2019-05-29T15:30:45.095Z,73.17
2019-05-29T15:33:52.479Z,83.01
2019-05-29T15:36:59.847Z,72.35
2019-05-29T15:40:25.093Z,75.98
2019-05-29T15:43:44.209Z,79.04
2019-05-29T15:46:51.580Z,72.79
2019-05-29T16:00:57.841Z,71.75
2019-05-29T16:04:05.234Z,75.60
2019-05-29T16:07:24.534Z,69.22
2019-05-29T16:10:50.009Z,78.19
2019-05-29T16:14:15.046Z,65.13
2019-05-29T16:17:33.784Z,69.57
2019-05-29T16:20:39.740Z,69.86
2019-05-29T16:23:58.227Z,71.80
2019-05-29T16:27:18.196Z,70.36
2019-05-29T16:30:25.199Z,73.96
2019-05-29T16:33:32.597Z,69.60
2019-05-29T16:36:40.113Z,66.67
2019-05-29T16:39:47.403Z,71.02
2019-05-29T16:42:54.646Z,60.00
2019-05-29T16:46:01.921Z,55.32
2019-05-29T16:49:09.357Z,62.43
2019-05-29T16:52:16.868Z,63.82
2019-05-29T16:55:53.540Z,59.40
2019-05-29T16:59:02.702Z,75.05
2019-05-29T17:02:10.426Z,67.08
2019-05-29T17:05:17.736Z,66.62
2019-05-29T17:08:24.757Z,70.04
2019-05-29T17:11:32.041Z,63.50
2019-05-29T17:14:39.761Z,61.79
2019-05-29T17:17:47.046Z,59.30
2019-05-29T17:20:54.406Z,59.12
2019-05-29T17:24:14.691Z,57.70
2019-05-29T17:27:22.961Z,56.84
2019-05-29T17:30:31.795Z,56.84
2019-05-29T17:33:39.130Z,60.08
2019-05-29T17:36:46.498Z,60.08
2019-05-29T17:39:53.849Z,60.02
2019-05-29T17:43:01.197Z,60.66
2019-05-29T17:46:08.617Z,64.66
2019-05-29T17:49:15.857Z,65.13
2019-05-29T17:52:23.938Z,67.14
2019-05-29T17:55:31.312Z,65.27
2019-05-29T17:58:38.903Z,63.33
2019-05-29T18:01:46.274Z,63.44
2019-05-29T18:04:53.629Z,66.48
2019-05-29T18:08:13.221Z,66.17
2019-05-29T18:11:21.120Z,65.65
2019-05-29T18:14:28.455Z,71.66
2019-05-29T18:17:35.884Z,71.23
2019-05-29T18:20:43.392Z,71.58
2019-05-29T18:23:53.402Z,73.98
2019-05-29T18:26:59.635Z,76.70
2019-05-29T18:30:08.593Z,76.37
2019-05-29T18:33:28.821Z,79.22
2019-05-29T18:36:35.778Z,80.96
2019-05-29T18:39:43.142Z,82.81
2019-05-29T18:42:50.512Z,81.99
2019-05-29T18:45:58.151Z,81.68
2019-05-29T18:49:16.908Z,82.44
2019-05-29T18:52:35.700Z,84.16
2019-05-29T18:56:00.433Z,83.82
2019-05-29T18:59:21.495Z,85.77
2019-05-29T19:02:29.574Z,86.07
2019-05-29T19:05:37.104Z,87.28
2019-05-29T19:08:44.729Z,87.78
2019-05-29T19:11:52.049Z,90.01
2019-05-29T19:14:59.490Z,89.58
2019-05-29T19:18:18.146Z,91.00
2019-05-29T19:21:43.393Z,91.21
2019-05-29T19:25:02.764Z,91.69
2019-05-29T19:28:22.474Z,92.94
2019-05-29T19:31:31.205Z,93.66
2019-05-29T19:34:38.723Z,93.99
2019-05-29T19:37:49.984Z,93.78
2019-05-29T19:40:56.844Z,94.64
2019-05-29T19:44:04.695Z,94.70
2019-05-29T19:47:22.997Z,93.97
2019-05-29T19:50:30.909Z,94.95
2019-05-29T19:53:38.654Z,97.05
2019-05-29T19:56:46.005Z,98.16
2019-05-29T19:59:53.375Z,98.74
2019-05-29T20:03:00.833Z,99.04
2019-05-29T20:06:26.881Z,99.75
2019-05-29T20:09:35.445Z,99.54
2019-05-29T20:12:42.773Z,100.00
2019-05-29T20:15:50.155Z,99.50
2019-05-29T20:18:57.517Z,100.00
2019-05-29T20:22:05.223Z,100.00
2019-05-29T20:25:29.436Z,100.00
2019-05-29T20:28:48.593Z,100.00
2019-05-29T20:32:08.293Z,100.00
2019-05-29T20:35:34.817Z,100.00
2019-05-29T20:38:42.182Z,100.00
2019-05-29T20:42:07.763Z,100.00
2019-05-29T20:45:27.006Z,100.00
2019-05-29T20:48:33.251Z,100.00
2019-05-29T20:51:40.729Z,100.00
2019-05-29T20:54:48.329Z,100.00
2019-05-29T20:57:55.590Z,100.00
2019-05-29T21:01:03.353Z,100.00
2019-05-29T21:04:11.023Z,100.00
2019-05-29T21:07:18.313Z,100.00
2019-05-29T21:10:25.774Z,100.00
2019-05-29T21:13:33.330Z,100.00
2019-05-29T21:16:41.859Z,100.00
2019-05-29T21:19:49.378Z,100.00
2019-05-29T21:23:09.194Z,100.00
2019-05-29T21:26:16.482Z,100.00
2019-05-29T21:29:35.537Z,100.00
2019-05-29T21:32:44.006Z,100.00
2019-05-29T21:35:51.429Z,100.00
2019-05-29T21:38:58.123Z,100.00
2019-05-29T21:42:05.481Z,100.00
2019-05-29T21:45:11.434Z,100.00
2019-05-29T21:48:19.385Z,100.00
2019-05-29T21:51:26.833Z,100.00
2019-05-29T21:54:34.199Z,100.00
2019-05-29T21:57:45.112Z,100.00
2019-05-29T22:00:50.942Z,100.00
2019-05-29T22:04:09.992Z,100.00
2019-05-29T22:07:15.722Z,100.00
2019-05-29T22:10:40.490Z,100.00
2019-05-29T22:14:00.659Z,100.00
2019-05-29T22:17:08.162Z,100.00
2019-05-29T22:20:15.740Z,100.00
2019-05-29T22:23:23.033Z,100.00
2019-05-29T22:26:30.385Z,100.00
2019-05-29T22:29:37.771Z,100.00
2019-05-29T22:32:57.488Z,100.00
2019-05-29T22:36:04.961Z,100.00
2019-05-29T22:39:11.906Z,100.00
2019-05-29T22:42:19.457Z,100.00
2019-05-29T22:45:26.810Z,100.00
2019-05-29T22:48:34.341Z,100.00
2019-05-29T22:51:41.690Z,100.00
2019-05-29T22:54:49.052Z,100.00
2019-05-29T22:58:14.151Z,100.00
2019-05-29T23:01:21.402Z,100.00
2019-05-29T23:04:40.172Z,100.00
2019-05-29T23:07:46.486Z,100.00
2019-05-29T23:10:54.213Z,100.00
2019-05-29T23:14:02.534Z,100.00
2019-05-29T23:17:09.397Z,100.00
2019-05-29T23:20:17.335Z,100.00
2019-05-29T23:23:24.782Z,100.00
2019-05-29T23:26:32.156Z,100.00
2019-05-29T23:29:48.600Z,100.00
2019-05-29T23:32:47.787Z,100.00
2019-05-29T23:35:55.413Z,100.00
2019-05-29T23:49:44.060Z,100.00
2019-05-29T23:53:04.012Z,100.00
2019-05-29T23:56:11.544Z,100.00
2019-05-29T23:59:18.877Z,100.00
